sensor_id;sensor_type;location;lat;lon;timestamp;P1;durP1;ratioP1;P2;durP2;ratioP2
75152;SDS011;63734;45.218;36.708;2023-04-16T00:00:08;7.85;;;5.22;;
75152;SDS011;63734;45.218;36.708;2023-04-16T00:02:38;8.20;;;5.70;;
75152;SDS011;63734;45.218;36.708;2023-04-16T00:05:04;8.45;;;5.70;;
75152;SDS011;63734;45.218;36.708;2023-04-16T00:07:30;7.38;;;4.68;;
75152;SDS011;63734;45.218;36.708;2023-04-16T00:09:56;11.15;;;7.38;;
75152;SDS011;63734;45.218;36.708;2023-04-16T00:12:22;11.13;;;8.25;;
75152;SDS011;63734;45.218;36.708;2023-04-16T00:14:48;11.20;;;7.20;;
75152;SDS011;63734;45.218;36.708;2023-04-16T00:17:14;10.27;;;7.47;;
75152;SDS011;63734;45.218;36.708;2023-04-16T00:19:40;10.70;;;7.18;;
75152;SDS011;63734;45.218;36.708;2023-04-16T00:22:06;8.85;;;6.22;;
75152;SDS011;63734;45.218;36.708;2023-04-16T00:24:31;11.32;;;6.95;;
75152;SDS011;63734;45.218;36.708;2023-04-16T00:26:57;11.27;;;6.82;;
75152;SDS011;63734;45.218;36.708;2023-04-16T00:29:23;11.07;;;7.30;;
75152;SDS011;63734;45.218;36.708;2023-04-16T00:31:49;9.02;;;5.93;;
75152;SDS011;63734;45.218;36.708;2023-04-16T00:34:15;11.48;;;8.35;;
75152;SDS011;63734;45.218;36.708;2023-04-16T00:36:41;12.70;;;8.63;;
75152;SDS011;63734;45.218;36.708;2023-04-16T00:39:07;11.55;;;7.80;;
75152;SDS011;63734;45.218;36.708;2023-04-16T00:41:33;12.32;;;7.60;;
75152;SDS011;63734;45.218;36.708;2023-04-16T00:43:59;7.70;;;4.88;;
75152;SDS011;63734;45.218;36.708;2023-04-16T00:46:25;8.82;;;6.35;;
75152;SDS011;63734;45.218;36.708;2023-04-16T00:48:52;9.02;;;6.15;;
75152;SDS011;63734;45.218;36.708;2023-04-16T00:51:18;11.18;;;6.88;;
75152;SDS011;63734;45.218;36.708;2023-04-16T00:53:46;10.23;;;7.00;;
75152;SDS011;63734;45.218;36.708;2023-04-16T00:56:12;9.45;;;6.85;;
75152;SDS011;63734;45.218;36.708;2023-04-16T00:58:38;10.15;;;6.13;;
75152;SDS011;63734;45.218;36.708;2023-04-16T01:01:04;12.05;;;8.38;;
75152;SDS011;63734;45.218;36.708;2023-04-16T01:05:59;13.63;;;8.43;;
75152;SDS011;63734;45.218;36.708;2023-04-16T01:08:25;13.50;;;6.97;;
75152;SDS011;63734;45.218;36.708;2023-04-16T01:10:51;14.48;;;8.30;;
75152;SDS011;63734;45.218;36.708;2023-04-16T01:13:17;13.27;;;10.02;;
75152;SDS011;63734;45.218;36.708;2023-04-16T01:15:43;11.80;;;8.27;;
75152;SDS011;63734;45.218;36.708;2023-04-16T01:18:13;12.85;;;8.65;;
75152;SDS011;63734;45.218;36.708;2023-04-16T01:20:40;10.18;;;6.22;;
75152;SDS011;63734;45.218;36.708;2023-04-16T01:23:06;8.82;;;4.82;;
75152;SDS011;63734;45.218;36.708;2023-04-16T01:25:31;12.95;;;8.48;;
75152;SDS011;63734;45.218;36.708;2023-04-16T01:27:57;9.15;;;5.70;;
75152;SDS011;63734;45.218;36.708;2023-04-16T01:30:24;11.63;;;5.82;;
75152;SDS011;63734;45.218;36.708;2023-04-16T01:33:13;10.90;;;7.45;;
75152;SDS011;63734;45.218;36.708;2023-04-16T01:35:40;13.57;;;8.48;;
75152;SDS011;63734;45.218;36.708;2023-04-16T01:38:06;13.95;;;9.40;;
75152;SDS011;63734;45.218;36.708;2023-04-16T01:40:33;14.65;;;9.75;;
75152;SDS011;63734;45.218;36.708;2023-04-16T01:43:00;11.30;;;7.00;;
75152;SDS011;63734;45.218;36.708;2023-04-16T01:45:26;9.60;;;7.05;;
75152;SDS011;63734;45.218;36.708;2023-04-16T01:47:52;13.50;;;8.23;;
75152;SDS011;63734;45.218;36.708;2023-04-16T01:50:19;13.40;;;9.52;;
75152;SDS011;63734;45.218;36.708;2023-04-16T01:52:45;13.20;;;9.13;;
75152;SDS011;63734;45.218;36.708;2023-04-16T01:55:11;12.80;;;7.88;;
75152;SDS011;63734;45.218;36.708;2023-04-16T01:57:38;11.40;;;7.88;;
75152;SDS011;63734;45.218;36.708;2023-04-16T02:00:04;14.57;;;9.88;;
75152;SDS011;63734;45.218;36.708;2023-04-16T02:02:31;16.40;;;10.27;;
75152;SDS011;63734;45.218;36.708;2023-04-16T02:04:58;14.85;;;8.93;;
75152;SDS011;63734;45.218;36.708;2023-04-16T02:07:24;15.63;;;10.60;;
75152;SDS011;63734;45.218;36.708;2023-04-16T02:09:50;13.90;;;9.55;;
75152;SDS011;63734;45.218;36.708;2023-04-16T02:12:16;15.80;;;10.63;;
75152;SDS011;63734;45.218;36.708;2023-04-16T02:14:42;16.05;;;11.80;;
75152;SDS011;63734;45.218;36.708;2023-04-16T02:17:09;14.85;;;10.35;;
75152;SDS011;63734;45.218;36.708;2023-04-16T02:19:39;15.77;;;10.57;;
75152;SDS011;63734;45.218;36.708;2023-04-16T02:22:07;13.40;;;9.77;;
75152;SDS011;63734;45.218;36.708;2023-04-16T02:24:33;14.80;;;8.48;;
75152;SDS011;63734;45.218;36.708;2023-04-16T02:27:03;17.90;;;11.80;;
75152;SDS011;63734;45.218;36.708;2023-04-16T02:29:29;18.83;;;13.35;;
75152;SDS011;63734;45.218;36.708;2023-04-16T02:32:12;20.20;;;11.48;;
75152;SDS011;63734;45.218;36.708;2023-04-16T02:34:42;20.08;;;13.13;;
75152;SDS011;63734;45.218;36.708;2023-04-16T02:37:08;18.67;;;11.40;;
75152;SDS011;63734;45.218;36.708;2023-04-16T02:39:34;16.85;;;9.80;;
75152;SDS011;63734;45.218;36.708;2023-04-16T02:42:00;16.23;;;9.20;;
75152;SDS011;63734;45.218;36.708;2023-04-16T02:44:27;20.25;;;13.40;;
75152;SDS011;63734;45.218;36.708;2023-04-16T02:46:52;18.33;;;11.90;;
75152;SDS011;63734;45.218;36.708;2023-04-16T02:49:18;19.70;;;13.00;;
75152;SDS011;63734;45.218;36.708;2023-04-16T02:51:46;22.55;;;14.32;;
75152;SDS011;63734;45.218;36.708;2023-04-16T02:54:12;22.30;;;15.07;;
75152;SDS011;63734;45.218;36.708;2023-04-16T02:56:38;19.25;;;11.70;;
75152;SDS011;63734;45.218;36.708;2023-04-16T02:59:04;21.27;;;12.27;;
75152;SDS011;63734;45.218;36.708;2023-04-16T03:01:31;19.02;;;12.85;;
75152;SDS011;63734;45.218;36.708;2023-04-16T03:03:57;17.30;;;11.75;;
75152;SDS011;63734;45.218;36.708;2023-04-16T03:06:23;17.40;;;10.55;;
75152;SDS011;63734;45.218;36.708;2023-04-16T03:08:50;19.67;;;12.73;;
75152;SDS011;63734;45.218;36.708;2023-04-16T03:11:16;24.73;;;14.60;;
75152;SDS011;63734;45.218;36.708;2023-04-16T03:13:42;18.63;;;10.63;;
75152;SDS011;63734;45.218;36.708;2023-04-16T03:16:09;19.15;;;10.60;;
75152;SDS011;63734;45.218;36.708;2023-04-16T03:18:34;19.88;;;11.02;;
75152;SDS011;63734;45.218;36.708;2023-04-16T03:21:00;19.30;;;11.85;;
75152;SDS011;63734;45.218;36.708;2023-04-16T03:23:26;21.55;;;13.25;;
75152;SDS011;63734;45.218;36.708;2023-04-16T03:25:52;16.88;;;11.40;;
75152;SDS011;63734;45.218;36.708;2023-04-16T03:28:18;18.27;;;11.88;;
75152;SDS011;63734;45.218;36.708;2023-04-16T03:30:51;17.02;;;10.93;;
75152;SDS011;63734;45.218;36.708;2023-04-16T03:33:18;18.60;;;11.70;;
75152;SDS011;63734;45.218;36.708;2023-04-16T03:35:45;20.73;;;13.82;;
75152;SDS011;63734;45.218;36.708;2023-04-16T03:38:12;17.50;;;11.38;;
75152;SDS011;63734;45.218;36.708;2023-04-16T03:40:39;19.02;;;11.27;;
75152;SDS011;63734;45.218;36.708;2023-04-16T03:43:05;21.20;;;11.75;;
75152;SDS011;63734;45.218;36.708;2023-04-16T03:45:31;23.95;;;14.55;;
75152;SDS011;63734;45.218;36.708;2023-04-16T03:47:57;22.52;;;14.48;;
75152;SDS011;63734;45.218;36.708;2023-04-16T03:50:24;23.50;;;13.65;;
75152;SDS011;63734;45.218;36.708;2023-04-16T03:52:50;23.50;;;13.95;;
75152;SDS011;63734;45.218;36.708;2023-04-16T03:55:17;25.23;;;16.25;;
75152;SDS011;63734;45.218;36.708;2023-04-16T03:57:44;20.92;;;12.65;;
75152;SDS011;63734;45.218;36.708;2023-04-16T04:00:12;24.08;;;15.90;;
75152;SDS011;63734;45.218;36.708;2023-04-16T04:02:53;22.90;;;13.30;;
75152;SDS011;63734;45.218;36.708;2023-04-16T04:05:19;20.77;;;12.25;;
75152;SDS011;63734;45.218;36.708;2023-04-16T04:07:46;15.57;;;9.98;;
75152;SDS011;63734;45.218;36.708;2023-04-16T04:10:13;15.88;;;9.55;;
75152;SDS011;63734;45.218;36.708;2023-04-16T04:12:40;24.30;;;13.52;;
75152;SDS011;63734;45.218;36.708;2023-04-16T04:15:06;22.45;;;14.02;;
75152;SDS011;63734;45.218;36.708;2023-04-16T04:17:32;23.40;;;14.55;;
75152;SDS011;63734;45.218;36.708;2023-04-16T04:20:00;21.77;;;14.65;;
75152;SDS011;63734;45.218;36.708;2023-04-16T04:22:26;21.17;;;12.02;;
75152;SDS011;63734;45.218;36.708;2023-04-16T04:24:52;19.80;;;12.40;;
75152;SDS011;63734;45.218;36.708;2023-04-16T04:27:18;16.88;;;9.88;;
75152;SDS011;63734;45.218;36.708;2023-04-16T04:29:44;17.50;;;10.98;;
75152;SDS011;63734;45.218;36.708;2023-04-16T04:32:10;18.45;;;12.45;;
75152;SDS011;63734;45.218;36.708;2023-04-16T04:34:36;17.95;;;11.77;;
75152;SDS011;63734;45.218;36.708;2023-04-16T04:37:04;16.05;;;9.73;;
75152;SDS011;63734;45.218;36.708;2023-04-16T04:39:30;18.25;;;8.95;;
75152;SDS011;63734;45.218;36.708;2023-04-16T04:41:56;15.73;;;8.75;;
75152;SDS011;63734;45.218;36.708;2023-04-16T04:44:22;20.73;;;13.32;;
75152;SDS011;63734;45.218;36.708;2023-04-16T04:46:48;16.80;;;10.48;;
75152;SDS011;63734;45.218;36.708;2023-04-16T04:49:14;16.92;;;10.30;;
75152;SDS011;63734;45.218;36.708;2023-04-16T04:51:40;17.92;;;11.20;;
75152;SDS011;63734;45.218;36.708;2023-04-16T04:54:06;17.40;;;9.82;;
75152;SDS011;63734;45.218;36.708;2023-04-16T04:56:32;11.43;;;6.55;;
75152;SDS011;63734;45.218;36.708;2023-04-16T04:58:58;15.10;;;10.73;;
75152;SDS011;63734;45.218;36.708;2023-04-16T05:01:24;14.15;;;7.47;;
75152;SDS011;63734;45.218;36.708;2023-04-16T05:03:50;18.13;;;11.23;;
75152;SDS011;63734;45.218;36.708;2023-04-16T05:06:16;13.98;;;8.30;;
75152;SDS011;63734;45.218;36.708;2023-04-16T05:08:42;14.48;;;8.73;;
75152;SDS011;63734;45.218;36.708;2023-04-16T05:11:08;12.73;;;7.72;;
75152;SDS011;63734;45.218;36.708;2023-04-16T05:13:33;16.42;;;10.07;;
75152;SDS011;63734;45.218;36.708;2023-04-16T05:15:59;21.00;;;8.93;;
75152;SDS011;63734;45.218;36.708;2023-04-16T05:18:25;16.85;;;10.02;;
75152;SDS011;63734;45.218;36.708;2023-04-16T05:20:52;17.58;;;8.43;;
75152;SDS011;63734;45.218;36.708;2023-04-16T05:23:18;14.13;;;9.15;;
75152;SDS011;63734;45.218;36.708;2023-04-16T05:25:43;15.05;;;9.77;;
75152;SDS011;63734;45.218;36.708;2023-04-16T05:28:09;15.52;;;10.38;;
75152;SDS011;63734;45.218;36.708;2023-04-16T05:30:35;15.50;;;9.82;;
75152;SDS011;63734;45.218;36.708;2023-04-16T05:33:01;16.95;;;10.88;;
75152;SDS011;63734;45.218;36.708;2023-04-16T05:35:27;17.60;;;9.23;;
75152;SDS011;63734;45.218;36.708;2023-04-16T05:37:53;19.27;;;9.52;;
75152;SDS011;63734;45.218;36.708;2023-04-16T05:40:19;14.13;;;8.68;;
75152;SDS011;63734;45.218;36.708;2023-04-16T05:42:45;19.05;;;10.23;;
75152;SDS011;63734;45.218;36.708;2023-04-16T05:45:11;17.98;;;10.43;;
75152;SDS011;63734;45.218;36.708;2023-04-16T05:47:37;18.40;;;11.85;;
75152;SDS011;63734;45.218;36.708;2023-04-16T05:50:03;16.00;;;9.80;;
75152;SDS011;63734;45.218;36.708;2023-04-16T05:52:29;18.83;;;11.38;;
75152;SDS011;63734;45.218;36.708;2023-04-16T05:54:55;17.27;;;10.27;;
75152;SDS011;63734;45.218;36.708;2023-04-16T05:57:22;15.60;;;9.48;;
75152;SDS011;63734;45.218;36.708;2023-04-16T05:59:48;13.57;;;8.05;;
75152;SDS011;63734;45.218;36.708;2023-04-16T06:02:14;17.50;;;8.75;;
75152;SDS011;63734;45.218;36.708;2023-04-16T06:04:40;16.90;;;8.32;;
75152;SDS011;63734;45.218;36.708;2023-04-16T06:07:06;14.82;;;10.00;;
75152;SDS011;63734;45.218;36.708;2023-04-16T06:09:32;14.27;;;7.72;;
75152;SDS011;63734;45.218;36.708;2023-04-16T06:11:58;16.63;;;9.48;;
75152;SDS011;63734;45.218;36.708;2023-04-16T06:14:24;15.02;;;8.48;;
75152;SDS011;63734;45.218;36.708;2023-04-16T06:16:50;12.52;;;8.00;;
75152;SDS011;63734;45.218;36.708;2023-04-16T06:19:16;12.60;;;7.53;;
75152;SDS011;63734;45.218;36.708;2023-04-16T06:21:41;16.17;;;9.30;;
75152;SDS011;63734;45.218;36.708;2023-04-16T06:24:07;16.25;;;8.95;;
75152;SDS011;63734;45.218;36.708;2023-04-16T06:26:33;15.93;;;9.98;;
75152;SDS011;63734;45.218;36.708;2023-04-16T06:28:59;13.75;;;8.02;;
75152;SDS011;63734;45.218;36.708;2023-04-16T06:31:25;12.50;;;7.43;;
75152;SDS011;63734;45.218;36.708;2023-04-16T06:33:51;15.30;;;9.68;;
75152;SDS011;63734;45.218;36.708;2023-04-16T06:36:17;15.32;;;8.90;;
75152;SDS011;63734;45.218;36.708;2023-04-16T06:38:43;14.38;;;9.27;;
75152;SDS011;63734;45.218;36.708;2023-04-16T06:41:09;12.30;;;7.20;;
75152;SDS011;63734;45.218;36.708;2023-04-16T06:43:35;11.32;;;7.80;;
75152;SDS011;63734;45.218;36.708;2023-04-16T06:46:01;14.73;;;8.68;;
75152;SDS011;63734;45.218;36.708;2023-04-16T06:48:27;11.00;;;6.40;;
75152;SDS011;63734;45.218;36.708;2023-04-16T06:50:54;12.15;;;7.30;;
75152;SDS011;63734;45.218;36.708;2023-04-16T06:53:20;16.08;;;8.95;;
75152;SDS011;63734;45.218;36.708;2023-04-16T06:55:47;17.80;;;10.30;;
75152;SDS011;63734;45.218;36.708;2023-04-16T06:58:12;15.60;;;9.38;;
75152;SDS011;63734;45.218;36.708;2023-04-16T07:00:38;12.93;;;8.60;;
75152;SDS011;63734;45.218;36.708;2023-04-16T07:03:04;14.70;;;7.47;;
75152;SDS011;63734;45.218;36.708;2023-04-16T07:05:30;14.57;;;7.57;;
75152;SDS011;63734;45.218;36.708;2023-04-16T07:07:57;13.75;;;8.07;;
75152;SDS011;63734;45.218;36.708;2023-04-16T07:10:23;14.18;;;7.85;;
75152;SDS011;63734;45.218;36.708;2023-04-16T07:12:49;20.02;;;10.35;;
75152;SDS011;63734;45.218;36.708;2023-04-16T07:15:16;11.77;;;7.88;;
75152;SDS011;63734;45.218;36.708;2023-04-16T07:17:41;11.73;;;7.00;;
75152;SDS011;63734;45.218;36.708;2023-04-16T07:20:07;13.25;;;7.25;;
75152;SDS011;63734;45.218;36.708;2023-04-16T07:22:34;16.27;;;9.85;;
75152;SDS011;63734;45.218;36.708;2023-04-16T07:25:00;12.25;;;6.95;;
75152;SDS011;63734;45.218;36.708;2023-04-16T07:27:26;13.57;;;7.72;;
75152;SDS011;63734;45.218;36.708;2023-04-16T07:29:52;14.75;;;8.45;;
75152;SDS011;63734;45.218;36.708;2023-04-16T07:32:20;12.45;;;7.13;;
75152;SDS011;63734;45.218;36.708;2023-04-16T07:34:46;11.63;;;7.75;;
75152;SDS011;63734;45.218;36.708;2023-04-16T07:37:12;12.75;;;6.18;;
75152;SDS011;63734;45.218;36.708;2023-04-16T07:39:38;12.73;;;7.43;;
75152;SDS011;63734;45.218;36.708;2023-04-16T07:42:04;17.38;;;8.13;;
75152;SDS011;63734;45.218;36.708;2023-04-16T07:44:31;11.77;;;7.65;;
75152;SDS011;63734;45.218;36.708;2023-04-16T07:46:57;10.88;;;7.28;;
75152;SDS011;63734;45.218;36.708;2023-04-16T07:49:23;13.80;;;6.65;;
75152;SDS011;63734;45.218;36.708;2023-04-16T07:51:49;13.32;;;7.47;;
75152;SDS011;63734;45.218;36.708;2023-04-16T07:54:15;10.73;;;6.10;;
75152;SDS011;63734;45.218;36.708;2023-04-16T07:56:41;11.75;;;6.70;;
75152;SDS011;63734;45.218;36.708;2023-04-16T07:59:07;16.60;;;8.13;;
75152;SDS011;63734;45.218;36.708;2023-04-16T08:01:32;14.80;;;6.88;;
75152;SDS011;63734;45.218;36.708;2023-04-16T08:03:58;14.55;;;8.68;;
75152;SDS011;63734;45.218;36.708;2023-04-16T08:06:25;11.82;;;8.23;;
75152;SDS011;63734;45.218;36.708;2023-04-16T08:08:51;8.25;;;5.95;;
75152;SDS011;63734;45.218;36.708;2023-04-16T08:11:17;13.30;;;7.35;;
75152;SDS011;63734;45.218;36.708;2023-04-16T08:13:43;15.75;;;10.38;;
75152;SDS011;63734;45.218;36.708;2023-04-16T08:16:09;11.35;;;6.95;;
75152;SDS011;63734;45.218;36.708;2023-04-16T08:18:35;12.70;;;6.60;;
75152;SDS011;63734;45.218;36.708;2023-04-16T08:21:01;13.10;;;9.13;;
75152;SDS011;63734;45.218;36.708;2023-04-16T08:23:27;10.18;;;6.38;;
75152;SDS011;63734;45.218;36.708;2023-04-16T08:25:54;13.18;;;8.00;;
75152;SDS011;63734;45.218;36.708;2023-04-16T08:28:20;14.10;;;7.82;;
75152;SDS011;63734;45.218;36.708;2023-04-16T08:30:46;10.38;;;6.55;;
75152;SDS011;63734;45.218;36.708;2023-04-16T08:33:12;13.90;;;8.27;;
75152;SDS011;63734;45.218;36.708;2023-04-16T08:35:38;11.80;;;7.15;;
75152;SDS011;63734;45.218;36.708;2023-04-16T08:38:05;11.60;;;7.38;;
75152;SDS011;63734;45.218;36.708;2023-04-16T08:40:31;10.70;;;6.18;;
75152;SDS011;63734;45.218;36.708;2023-04-16T08:43:04;10.63;;;6.80;;
75152;SDS011;63734;45.218;36.708;2023-04-16T08:45:34;15.45;;;7.57;;
75152;SDS011;63734;45.218;36.708;2023-04-16T08:48:01;10.48;;;6.60;;
75152;SDS011;63734;45.218;36.708;2023-04-16T08:50:30;10.52;;;6.80;;
75152;SDS011;63734;45.218;36.708;2023-04-16T08:53:00;14.60;;;8.90;;
75152;SDS011;63734;45.218;36.708;2023-04-16T08:55:40;13.15;;;7.05;;
75152;SDS011;63734;45.218;36.708;2023-04-16T08:58:20;8.45;;;5.35;;
75152;SDS011;63734;45.218;36.708;2023-04-16T09:00:47;11.23;;;6.88;;
75152;SDS011;63734;45.218;36.708;2023-04-16T09:03:13;10.57;;;6.22;;
75152;SDS011;63734;45.218;36.708;2023-04-16T09:05:40;13.25;;;8.27;;
75152;SDS011;63734;45.218;36.708;2023-04-16T09:08:07;11.50;;;8.55;;
75152;SDS011;63734;45.218;36.708;2023-04-16T09:10:33;10.75;;;6.80;;
75152;SDS011;63734;45.218;36.708;2023-04-16T09:12:59;11.82;;;6.68;;
75152;SDS011;63734;45.218;36.708;2023-04-16T09:15:25;8.27;;;5.47;;
75152;SDS011;63734;45.218;36.708;2023-04-16T09:17:52;9.15;;;6.00;;
75152;SDS011;63734;45.218;36.708;2023-04-16T09:20:18;11.15;;;7.93;;
75152;SDS011;63734;45.218;36.708;2023-04-16T09:22:44;9.90;;;5.90;;
75152;SDS011;63734;45.218;36.708;2023-04-16T09:25:11;9.77;;;6.03;;
75152;SDS011;63734;45.218;36.708;2023-04-16T09:27:37;9.48;;;6.43;;
75152;SDS011;63734;45.218;36.708;2023-04-16T09:30:23;7.53;;;5.15;;
75152;SDS011;63734;45.218;36.708;2023-04-16T09:35:47;10.68;;;5.60;;
75152;SDS011;63734;45.218;36.708;2023-04-16T09:38:14;8.82;;;5.80;;
75152;SDS011;63734;45.218;36.708;2023-04-16T09:40:40;10.02;;;5.90;;
75152;SDS011;63734;45.218;36.708;2023-04-16T09:43:12;10.10;;;5.20;;
75152;SDS011;63734;45.218;36.708;2023-04-16T09:45:49;7.20;;;4.30;;
75152;SDS011;63734;45.218;36.708;2023-04-16T09:48:29;7.70;;;4.85;;
75152;SDS011;63734;45.218;36.708;2023-04-16T09:50:56;8.13;;;5.18;;
75152;SDS011;63734;45.218;36.708;2023-04-16T09:53:24;8.40;;;5.53;;
75152;SDS011;63734;45.218;36.708;2023-04-16T09:55:51;8.25;;;5.47;;
75152;SDS011;63734;45.218;36.708;2023-04-16T09:58:20;10.73;;;6.07;;
75152;SDS011;63734;45.218;36.708;2023-04-16T10:00:49;7.82;;;4.50;;
75152;SDS011;63734;45.218;36.708;2023-04-16T10:03:33;7.57;;;4.22;;
75152;SDS011;63734;45.218;36.708;2023-04-16T10:08:42;8.07;;;4.22;;
75152;SDS011;63734;45.218;36.708;2023-04-16T10:11:10;6.30;;;4.68;;
75152;SDS011;63734;45.218;36.708;2023-04-16T10:13:37;9.25;;;4.90;;
75152;SDS011;63734;45.218;36.708;2023-04-16T10:16:02;6.82;;;3.83;;
75152;SDS011;63734;45.218;36.708;2023-04-16T10:18:29;5.63;;;4.05;;
75152;SDS011;63734;45.218;36.708;2023-04-16T10:20:55;8.48;;;4.28;;
75152;SDS011;63734;45.218;36.708;2023-04-16T10:23:22;5.20;;;4.03;;
75152;SDS011;63734;45.218;36.708;2023-04-16T10:25:48;5.72;;;3.92;;
75152;SDS011;63734;45.218;36.708;2023-04-16T10:28:15;12.23;;;4.38;;
75152;SDS011;63734;45.218;36.708;2023-04-16T10:30:44;5.88;;;4.15;;
75152;SDS011;63734;45.218;36.708;2023-04-16T10:33:20;8.52;;;4.65;;
75152;SDS011;63734;45.218;36.708;2023-04-16T10:35:51;9.98;;;4.28;;
75152;SDS011;63734;45.218;36.708;2023-04-16T10:38:31;7.15;;;4.15;;
75152;SDS011;63734;45.218;36.708;2023-04-16T10:41:06;5.40;;;4.13;;
75152;SDS011;63734;45.218;36.708;2023-04-16T10:43:41;4.63;;;3.45;;
75152;SDS011;63734;45.218;36.708;2023-04-16T10:46:24;5.10;;;3.88;;
75152;SDS011;63734;45.218;36.708;2023-04-16T10:48:55;7.10;;;4.72;;
75152;SDS011;63734;45.218;36.708;2023-04-16T10:54:18;8.30;;;4.32;;
75152;SDS011;63734;45.218;36.708;2023-04-16T10:56:51;6.15;;;3.38;;
75152;SDS011;63734;45.218;36.708;2023-04-16T10:59:19;5.72;;;3.83;;
75152;SDS011;63734;45.218;36.708;2023-04-16T11:01:50;6.68;;;4.22;;
75152;SDS011;63734;45.218;36.708;2023-04-16T11:09:50;5.18;;;3.88;;
75152;SDS011;63734;45.218;36.708;2023-04-16T11:12:24;8.27;;;3.90;;
75152;SDS011;63734;45.218;36.708;2023-04-16T11:14:57;7.15;;;3.78;;
75152;SDS011;63734;45.218;36.708;2023-04-16T11:17:26;6.63;;;3.78;;
75152;SDS011;63734;45.218;36.708;2023-04-16T11:19:56;6.45;;;3.67;;
75152;SDS011;63734;45.218;36.708;2023-04-16T11:22:22;5.57;;;3.70;;
75152;SDS011;63734;45.218;36.708;2023-04-16T11:24:53;62.05;;;29.02;;
75152;SDS011;63734;45.218;36.708;2023-04-16T11:27:21;90.10;;;38.65;;
75152;SDS011;63734;45.218;36.708;2023-04-16T11:29:59;5.75;;;3.65;;
75152;SDS011;63734;45.218;36.708;2023-04-16T11:32:34;8.35;;;4.18;;
75152;SDS011;63734;45.218;36.708;2023-04-16T11:35:02;9.45;;;3.63;;
75152;SDS011;63734;45.218;36.708;2023-04-16T11:37:30;6.43;;;4.05;;
75152;SDS011;63734;45.218;36.708;2023-04-16T11:40:01;7.65;;;4.40;;
75152;SDS011;63734;45.218;36.708;2023-04-16T11:42:41;5.78;;;3.78;;
75152;SDS011;63734;45.218;36.708;2023-04-16T11:45:08;5.85;;;4.00;;
75152;SDS011;63734;45.218;36.708;2023-04-16T11:47:48;5.78;;;3.72;;
75152;SDS011;63734;45.218;36.708;2023-04-16T11:50:22;6.90;;;3.45;;
75152;SDS011;63734;45.218;36.708;2023-04-16T11:52:50;6.25;;;3.65;;
75152;SDS011;63734;45.218;36.708;2023-04-16T11:55:17;6.65;;;3.80;;
75152;SDS011;63734;45.218;36.708;2023-04-16T11:57:44;6.13;;;3.20;;
75152;SDS011;63734;45.218;36.708;2023-04-16T12:00:10;4.57;;;3.97;;
75152;SDS011;63734;45.218;36.708;2023-04-16T12:02:44;6.80;;;4.22;;
75152;SDS011;63734;45.218;36.708;2023-04-16T12:05:30;6.75;;;3.95;;
75152;SDS011;63734;45.218;36.708;2023-04-16T12:08:01;5.73;;;3.87;;
75152;SDS011;63734;45.218;36.708;2023-04-16T12:10:29;7.10;;;3.70;;
75152;SDS011;63734;45.218;36.708;2023-04-16T12:13:17;5.80;;;4.38;;
75152;SDS011;63734;45.218;36.708;2023-04-16T12:15:47;6.35;;;3.78;;
75152;SDS011;63734;45.218;36.708;2023-04-16T12:18:15;7.88;;;4.20;;
75152;SDS011;63734;45.218;36.708;2023-04-16T12:20:42;6.95;;;4.43;;
75152;SDS011;63734;45.218;36.708;2023-04-16T12:23:09;6.07;;;4.25;;
75152;SDS011;63734;45.218;36.708;2023-04-16T12:25:46;7.18;;;3.78;;
75152;SDS011;63734;45.218;36.708;2023-04-16T12:28:14;8.77;;;4.45;;
75152;SDS011;63734;45.218;36.708;2023-04-16T12:30:51;6.95;;;4.47;;
75152;SDS011;63734;45.218;36.708;2023-04-16T12:33:17;5.72;;;3.92;;
75152;SDS011;63734;45.218;36.708;2023-04-16T12:35:44;7.03;;;3.63;;
75152;SDS011;63734;45.218;36.708;2023-04-16T12:38:10;7.07;;;3.63;;
75152;SDS011;63734;45.218;36.708;2023-04-16T12:40:36;4.80;;;3.22;;
75152;SDS011;63734;45.218;36.708;2023-04-16T12:43:02;6.32;;;3.90;;
75152;SDS011;63734;45.218;36.708;2023-04-16T12:45:28;6.63;;;3.67;;
75152;SDS011;63734;45.218;36.708;2023-04-16T12:47:54;7.47;;;4.50;;
75152;SDS011;63734;45.218;36.708;2023-04-16T12:50:21;6.82;;;3.72;;
75152;SDS011;63734;45.218;36.708;2023-04-16T12:52:47;5.60;;;3.85;;
75152;SDS011;63734;45.218;36.708;2023-04-16T12:55:13;5.22;;;3.35;;
75152;SDS011;63734;45.218;36.708;2023-04-16T12:57:39;4.32;;;3.70;;
75152;SDS011;63734;45.218;36.708;2023-04-16T13:00:05;8.00;;;3.58;;
75152;SDS011;63734;45.218;36.708;2023-04-16T13:02:35;4.80;;;3.55;;
75152;SDS011;63734;45.218;36.708;2023-04-16T13:05:01;4.53;;;3.22;;
75152;SDS011;63734;45.218;36.708;2023-04-16T13:07:27;4.32;;;3.00;;
75152;SDS011;63734;45.218;36.708;2023-04-16T13:09:56;5.50;;;3.35;;
75152;SDS011;63734;45.218;36.708;2023-04-16T13:12:21;5.18;;;3.10;;
75152;SDS011;63734;45.218;36.708;2023-04-16T13:14:47;6.13;;;3.30;;
75152;SDS011;63734;45.218;36.708;2023-04-16T13:17:14;6.47;;;3.53;;
75152;SDS011;63734;45.218;36.708;2023-04-16T13:19:40;6.55;;;3.22;;
75152;SDS011;63734;45.218;36.708;2023-04-16T13:22:05;6.97;;;3.08;;
75152;SDS011;63734;45.218;36.708;2023-04-16T13:24:32;7.50;;;3.13;;
75152;SDS011;63734;45.218;36.708;2023-04-16T13:26:58;6.10;;;3.58;;
75152;SDS011;63734;45.218;36.708;2023-04-16T13:29:24;5.35;;;2.90;;
75152;SDS011;63734;45.218;36.708;2023-04-16T13:31:51;4.95;;;3.40;;
75152;SDS011;63734;45.218;36.708;2023-04-16T13:34:17;5.30;;;3.13;;
75152;SDS011;63734;45.218;36.708;2023-04-16T13:36:43;7.45;;;3.40;;
75152;SDS011;63734;45.218;36.708;2023-04-16T13:39:09;7.30;;;3.30;;
75152;SDS011;63734;45.218;36.708;2023-04-16T13:41:36;6.00;;;3.33;;
75152;SDS011;63734;45.218;36.708;2023-04-16T13:44:02;5.55;;;2.90;;
75152;SDS011;63734;45.218;36.708;2023-04-16T13:46:28;5.63;;;3.60;;
75152;SDS011;63734;45.218;36.708;2023-04-16T13:48:55;6.10;;;3.70;;
75152;SDS011;63734;45.218;36.708;2023-04-16T13:51:22;6.07;;;3.28;;
75152;SDS011;63734;45.218;36.708;2023-04-16T13:53:52;6.15;;;3.47;;
75152;SDS011;63734;45.218;36.708;2023-04-16T13:56:18;6.07;;;3.80;;
75152;SDS011;63734;45.218;36.708;2023-04-16T13:58:44;7.15;;;3.92;;
75152;SDS011;63734;45.218;36.708;2023-04-16T14:01:10;3.22;;;2.63;;
75152;SDS011;63734;45.218;36.708;2023-04-16T14:03:37;7.25;;;4.40;;
75152;SDS011;63734;45.218;36.708;2023-04-16T14:06:04;5.47;;;3.50;;
75152;SDS011;63734;45.218;36.708;2023-04-16T14:08:31;6.75;;;3.65;;
75152;SDS011;63734;45.218;36.708;2023-04-16T14:10:57;9.43;;;3.58;;
75152;SDS011;63734;45.218;36.708;2023-04-16T14:13:23;6.75;;;3.75;;
75152;SDS011;63734;45.218;36.708;2023-04-16T14:15:52;4.85;;;3.60;;
75152;SDS011;63734;45.218;36.708;2023-04-16T14:18:18;6.05;;;3.55;;
75152;SDS011;63734;45.218;36.708;2023-04-16T14:20:44;5.18;;;3.33;;
75152;SDS011;63734;45.218;36.708;2023-04-16T14:23:11;11.40;;;3.78;;
75152;SDS011;63734;45.218;36.708;2023-04-16T14:25:37;4.00;;;2.80;;
75152;SDS011;63734;45.218;36.708;2023-04-16T14:28:03;6.93;;;3.10;;
75152;SDS011;63734;45.218;36.708;2023-04-16T14:30:29;5.68;;;3.55;;
75152;SDS011;63734;45.218;36.708;2023-04-16T14:32:55;19.10;;;4.55;;
75152;SDS011;63734;45.218;36.708;2023-04-16T14:35:21;7.60;;;4.70;;
75152;SDS011;63734;45.218;36.708;2023-04-16T14:37:48;6.97;;;4.50;;
75152;SDS011;63734;45.218;36.708;2023-04-16T14:40:14;8.05;;;4.50;;